createdAt,value
2018-06-22T00:00:34.480Z,13.80
2018-06-22T00:03:04.110Z,13.67
2018-06-22T00:05:33.696Z,13.87
2018-06-22T00:08:03.412Z,13.63
2018-06-22T00:10:33.036Z,12.97
2018-06-22T00:13:03.139Z,7.00
2018-06-22T00:15:32.944Z,6.77
2018-06-22T00:18:02.575Z,7.87
2018-06-22T00:20:32.439Z,4.73
2018-06-22T00:23:02.647Z,5.23
2018-06-22T00:25:32.347Z,7.33
2018-06-22T00:28:03.015Z,4.03
2018-06-22T00:30:32.684Z,7.97
2018-06-22T00:33:03.228Z,4.30
2018-06-22T00:35:32.734Z,3.70
2018-06-22T00:38:02.475Z,4.10
2018-06-22T00:40:31.972Z,3.50
2018-06-22T00:43:01.817Z,3.23
2018-06-22T00:45:32.209Z,3.33
2018-06-22T00:48:01.821Z,2.97
2018-06-22T00:50:31.616Z,3.57
2018-06-22T00:53:01.441Z,3.77
2018-06-22T00:55:31.092Z,4.30
2018-06-22T00:58:00.682Z,3.40
2018-06-22T01:00:30.294Z,4.00
2018-06-22T01:03:00.179Z,3.90
2018-06-22T01:05:29.792Z,3.70
2018-06-22T01:07:59.472Z,4.00
2018-06-22T01:10:29.155Z,3.70
2018-06-22T01:12:58.797Z,3.63
2018-06-22T01:15:28.359Z,3.37
2018-06-22T01:17:58.157Z,3.97
2018-06-22T01:20:28.296Z,3.63
2018-06-22T01:22:57.978Z,4.80
2018-06-22T01:25:27.729Z,3.10
2018-06-22T01:27:57.464Z,2.63
2018-06-22T01:30:27.179Z,3.33
2018-06-22T01:32:57.111Z,2.80
2018-06-22T01:35:26.843Z,3.00
2018-06-22T01:37:56.599Z,4.47
2018-06-22T01:40:26.375Z,3.97
2018-06-22T01:42:56.062Z,3.60
2018-06-22T01:45:25.678Z,4.50
2018-06-22T01:47:55.468Z,3.50
2018-06-22T01:50:25.083Z,4.77
2018-06-22T01:52:54.902Z,5.03
2018-06-22T01:55:24.620Z,4.37
2018-06-22T01:57:54.204Z,4.13
2018-06-22T02:00:23.967Z,4.30
2018-06-22T02:02:53.640Z,5.70
2018-06-22T02:05:24.153Z,5.07
2018-06-22T02:07:54.317Z,5.80
2018-06-22T02:10:24.048Z,6.57
2018-06-22T02:12:53.925Z,7.43
2018-06-22T02:15:23.581Z,5.93
2018-06-22T02:17:53.231Z,6.63
2018-06-22T02:20:22.973Z,6.40
2018-06-22T02:22:52.779Z,8.37
2018-06-22T02:25:22.615Z,6.93
2018-06-22T02:27:52.272Z,6.60
2018-06-22T02:30:21.970Z,7.23
2018-06-22T02:32:52.085Z,7.13
2018-06-22T02:35:21.782Z,6.67
2018-06-22T02:37:53.212Z,8.23
2018-06-22T02:40:23.112Z,7.33
2018-06-22T02:42:52.969Z,7.57
2018-06-22T02:45:29.696Z,7.83
2018-06-22T02:48:00.437Z,8.10
2018-06-22T02:50:34.338Z,7.57
2018-06-22T02:53:07.856Z,8.17
2018-06-22T02:55:38.546Z,7.83
2018-06-22T02:58:08.175Z,8.20
2018-06-22T03:00:37.977Z,9.13
2018-06-22T03:03:07.592Z,9.03
2018-06-22T03:05:37.319Z,8.63
2018-06-22T03:08:10.549Z,9.90
2018-06-22T03:10:40.303Z,9.47
2018-06-22T03:13:09.949Z,10.70
2018-06-22T03:15:39.640Z,11.93
2018-06-22T03:18:09.298Z,11.47
2018-06-22T03:20:38.908Z,14.33
2018-06-22T03:23:08.584Z,11.83
2018-06-22T03:25:38.310Z,12.90
2018-06-22T03:28:07.898Z,11.70
2018-06-22T03:30:37.497Z,13.60
2018-06-22T03:33:07.370Z,13.37
2018-06-22T03:35:36.898Z,15.07
2018-06-22T03:38:07.004Z,18.20
2018-06-22T03:40:36.664Z,15.10
2018-06-22T03:43:06.247Z,13.80
2018-06-22T03:45:36.020Z,14.17
2018-06-22T03:48:05.718Z,9.27
2018-06-22T03:50:35.388Z,9.13
2018-06-22T03:53:05.015Z,8.90
2018-06-22T03:55:34.717Z,9.27
2018-06-22T03:58:04.366Z,10.03
2018-06-22T04:00:33.945Z,8.30
2018-06-22T04:03:02.936Z,8.30
2018-06-22T04:05:32.638Z,10.33
2018-06-22T04:08:02.230Z,13.60
2018-06-22T04:10:31.909Z,9.43
2018-06-22T04:13:01.601Z,8.60
2018-06-22T04:15:31.564Z,9.57
2018-06-22T04:18:01.294Z,9.87
2018-06-22T04:20:30.927Z,10.73
2018-06-22T04:23:01.020Z,12.93
2018-06-22T04:25:30.636Z,14.83
2018-06-22T04:28:00.336Z,14.77
2018-06-22T04:30:30.014Z,14.93
2018-06-22T04:32:59.710Z,14.80
2018-06-22T04:35:29.744Z,14.10
2018-06-22T04:37:59.358Z,14.00
2018-06-22T04:40:29.050Z,14.17
2018-06-22T04:42:58.768Z,14.33
2018-06-22T04:45:28.407Z,15.07
2018-06-22T04:47:57.945Z,14.47
2018-06-22T04:50:27.604Z,15.30
2018-06-22T04:52:57.248Z,16.47
2018-06-22T04:55:26.947Z,16.70
2018-06-22T04:57:56.589Z,19.73
2018-06-22T05:00:26.219Z,16.60
2018-06-22T05:02:55.758Z,17.10
2018-06-22T05:05:25.402Z,19.30
2018-06-22T05:07:54.926Z,17.13
2018-06-22T05:10:24.685Z,17.40
2018-06-22T05:12:54.242Z,16.10
2018-06-22T05:15:24.009Z,15.03
2018-06-22T05:17:53.630Z,16.43
2018-06-22T05:20:23.264Z,16.47
2018-06-22T05:22:52.246Z,19.83
2018-06-22T05:25:21.826Z,18.87
2018-06-22T05:27:51.440Z,17.63
2018-06-22T05:30:21.042Z,17.07
2018-06-22T05:32:50.577Z,17.73
2018-06-22T05:35:20.187Z,17.20
2018-06-22T05:37:49.828Z,17.47
2018-06-22T05:40:19.417Z,16.83
2018-06-22T05:42:49.181Z,17.57
2018-06-22T05:45:18.719Z,16.60
2018-06-22T05:47:48.403Z,16.60
2018-06-22T05:50:18.061Z,16.63
2018-06-22T05:52:47.749Z,17.50
2018-06-22T05:55:17.374Z,15.73
2018-06-22T05:57:47.006Z,15.00
2018-06-22T06:00:16.652Z,15.63
2018-06-22T06:02:46.258Z,16.00
2018-06-22T06:05:15.935Z,16.43
2018-06-22T06:07:45.527Z,18.90
2018-06-22T06:10:15.226Z,17.27
2018-06-22T06:12:44.860Z,15.63
2018-06-22T06:15:14.595Z,17.00
2018-06-22T06:17:44.384Z,18.73
2018-06-22T06:20:14.084Z,18.10
2018-06-22T06:22:43.830Z,16.60
2018-06-22T06:25:13.506Z,18.97
2018-06-22T06:27:43.300Z,17.13
2018-06-22T06:30:12.926Z,16.93
2018-06-22T06:32:42.618Z,16.00
2018-06-22T06:35:12.366Z,16.00
2018-06-22T06:37:42.016Z,14.90
2018-06-22T06:40:11.759Z,15.13
2018-06-22T06:42:41.330Z,16.47
2018-06-22T06:45:10.974Z,14.10
2018-06-22T06:47:40.725Z,17.33
2018-06-22T06:50:10.383Z,17.03
2018-06-22T06:52:39.739Z,17.03
2018-06-22T06:55:09.294Z,15.47
2018-06-22T06:57:38.908Z,19.23
2018-06-22T07:00:08.922Z,15.63
2018-06-22T07:02:38.699Z,17.37
2018-06-22T07:05:08.662Z,15.97
2018-06-22T07:07:38.518Z,14.83
2018-06-22T07:10:08.451Z,14.87
2018-06-22T07:12:38.140Z,14.87
2018-06-22T07:15:07.876Z,19.90
2018-06-22T07:17:37.628Z,17.10
2018-06-22T07:20:07.540Z,15.23
2018-06-22T07:22:37.165Z,17.93
2018-06-22T07:25:06.920Z,14.47
2018-06-22T07:27:36.573Z,14.10
2018-06-22T07:30:06.274Z,14.87
2018-06-22T07:32:35.905Z,13.33
2018-06-22T07:35:05.696Z,13.43
2018-06-22T07:37:36.414Z,16.10
2018-06-22T07:40:06.017Z,17.10
2018-06-22T07:42:35.644Z,14.70
2018-06-22T07:45:05.345Z,14.40
2018-06-22T07:47:34.945Z,14.87
2018-06-22T07:50:04.820Z,18.93
2018-06-22T07:52:34.605Z,13.60
2018-06-22T07:55:04.224Z,12.90
2018-06-22T07:57:33.954Z,10.97
2018-06-22T08:00:03.657Z,11.47
2018-06-22T08:02:33.265Z,11.17
2018-06-22T08:05:03.087Z,11.88
2018-06-22T08:07:32.727Z,10.70
2018-06-22T08:10:02.350Z,11.53
2018-06-22T08:12:31.923Z,10.30
2018-06-22T08:15:01.685Z,9.73
2018-06-22T08:17:31.493Z,9.53
2018-06-22T08:20:01.179Z,9.73
2018-06-22T08:22:30.800Z,10.40
2018-06-22T08:25:00.469Z,9.25
2018-06-22T08:27:30.097Z,9.43
2018-06-22T08:29:59.045Z,8.17
2018-06-22T08:32:28.771Z,9.40
2018-06-22T08:34:58.448Z,7.90
2018-06-22T08:37:28.140Z,8.38
2018-06-22T08:39:57.907Z,8.70
2018-06-22T08:42:27.521Z,7.30
2018-06-22T08:44:57.163Z,7.50
2018-06-22T08:47:26.842Z,7.10
2018-06-22T08:49:56.526Z,7.17
2018-06-22T08:52:26.173Z,7.30
2018-06-22T08:54:55.927Z,5.83
2018-06-22T08:57:25.506Z,5.27
2018-06-22T08:59:54.562Z,5.50
2018-06-22T09:02:24.281Z,4.53
2018-06-22T09:04:53.895Z,4.90
2018-06-22T09:07:23.554Z,6.43
2018-06-22T09:09:53.274Z,7.07
2018-06-22T09:12:22.906Z,4.65
2018-06-22T09:14:52.630Z,6.67
2018-06-22T09:17:22.233Z,6.27
2018-06-22T09:19:51.900Z,4.30
2018-06-22T09:22:21.460Z,4.93
2018-06-22T09:24:51.110Z,4.17
2018-06-22T09:27:25.065Z,4.60
2018-06-22T09:29:54.774Z,5.70
2018-06-22T09:32:24.409Z,5.60
2018-06-22T09:34:54.168Z,5.70
2018-06-22T09:37:24.551Z,4.40
2018-06-22T09:39:54.201Z,4.23
2018-06-22T09:42:23.902Z,5.67
2018-06-22T09:44:53.555Z,4.37
2018-06-22T09:47:23.164Z,6.07
2018-06-22T09:49:52.768Z,4.97
2018-06-22T09:52:22.459Z,3.87
2018-06-22T09:54:52.033Z,3.60
2018-06-22T09:57:21.681Z,4.10
2018-06-22T09:59:51.280Z,4.20
2018-06-22T10:02:20.864Z,3.87
2018-06-22T10:04:50.470Z,4.70
2018-06-22T10:07:21.209Z,3.97
2018-06-22T10:09:50.907Z,5.37
2018-06-22T10:12:20.626Z,3.13
2018-06-22T10:14:50.342Z,3.92
2018-06-22T10:17:19.993Z,3.30
2018-06-22T10:19:49.549Z,2.43
2018-06-22T10:22:19.144Z,2.80
2018-06-22T10:24:48.766Z,2.67
2018-06-22T10:27:18.610Z,1.77
2018-06-22T10:29:48.213Z,2.53
2018-06-22T10:32:17.990Z,2.10
2018-06-22T10:34:47.568Z,1.90
2018-06-22T10:37:17.096Z,1.70
2018-06-22T10:39:46.729Z,2.13
2018-06-22T10:42:16.501Z,3.13
2018-06-22T10:44:46.123Z,1.20
2018-06-22T10:47:16.801Z,4.30
2018-06-22T10:49:50.566Z,2.40
2018-06-22T10:52:25.601Z,3.37
2018-06-22T10:54:56.357Z,3.40
2018-06-22T10:57:26.223Z,2.73
2018-06-22T10:59:56.094Z,2.73
2018-06-22T11:02:25.756Z,2.87
2018-06-22T11:04:55.709Z,4.23
2018-06-22T11:07:25.329Z,3.27
2018-06-22T11:09:54.989Z,2.37
2018-06-22T11:12:24.736Z,2.23
2018-06-22T11:14:54.412Z,4.53
2018-06-22T11:17:24.105Z,2.63
2018-06-22T11:19:53.831Z,2.77
2018-06-22T11:22:23.434Z,4.63
2018-06-22T11:24:53.040Z,3.42
2018-06-22T11:27:22.666Z,5.80
2018-06-22T11:29:52.323Z,2.53
2018-06-22T11:32:21.961Z,1.83
2018-06-22T11:34:51.647Z,3.80
2018-06-22T11:37:21.448Z,3.30
2018-06-22T11:39:51.205Z,4.47
2018-06-22T11:42:20.911Z,2.65
2018-06-22T11:44:50.462Z,3.77
2018-06-22T11:47:20.219Z,3.97
2018-06-22T11:49:49.884Z,3.85
2018-06-22T11:52:19.686Z,4.43
2018-06-22T11:54:49.347Z,4.73
2018-06-22T11:57:19.156Z,3.10
2018-06-22T11:59:48.807Z,6.00
2018-06-22T12:02:18.390Z,2.83
2018-06-22T12:04:48.125Z,3.10
2018-06-22T12:07:18.875Z,2.33
2018-06-22T12:09:55.775Z,2.20
2018-06-22T12:12:41.144Z,3.60
2018-06-22T12:15:16.990Z,2.63
2018-06-22T12:17:47.974Z,2.60
2018-06-22T12:20:22.572Z,2.53
2018-06-22T12:22:53.655Z,1.70
2018-06-22T12:25:30.289Z,4.53
2018-06-22T12:28:01.259Z,5.30
2018-06-22T12:30:37.724Z,9.53
2018-06-22T12:33:08.436Z,3.90
2018-06-22T12:35:42.800Z,7.00
2018-06-22T12:38:17.502Z,4.17
2018-06-22T12:40:53.188Z,3.77
2018-06-22T12:43:33.492Z,4.00
2018-06-22T12:46:05.076Z,3.27
2018-06-22T12:48:40.121Z,3.23
2018-06-22T12:51:10.923Z,6.75
2018-06-22T12:53:46.279Z,4.40
2018-06-22T12:56:16.992Z,1.83
2018-06-22T12:58:51.267Z,3.65
2018-06-22T13:01:55.924Z,4.70
2018-06-22T13:04:26.394Z,3.50
2018-06-22T13:06:57.434Z,3.33
2018-06-22T13:09:32.701Z,3.12
2018-06-22T13:12:03.400Z,3.20
2018-06-22T13:14:40.720Z,3.67
2018-06-22T13:17:11.725Z,4.60
2018-06-22T13:19:48.321Z,3.47
2018-06-22T13:22:21.234Z,2.23
2018-06-22T13:24:58.061Z,4.00
2018-06-22T13:27:28.809Z,4.40
2018-06-22T13:29:59.939Z,2.40
2018-06-22T13:32:33.264Z,4.22
2018-06-22T13:35:04.132Z,5.73
2018-06-22T13:37:33.140Z,2.80
2018-06-22T13:40:03.148Z,2.70
2018-06-22T13:42:33.272Z,2.70
2018-06-22T13:45:05.965Z,5.13
2018-06-22T13:47:37.174Z,5.20
2018-06-22T13:50:19.217Z,5.60
2018-06-22T13:52:49.704Z,7.50
2018-06-22T13:55:19.412Z,5.05
2018-06-22T13:57:49.325Z,3.60
2018-06-22T14:00:19.018Z,7.13
2018-06-22T14:02:48.878Z,4.90
2018-06-22T14:05:23.543Z,5.03
2018-06-22T14:07:53.193Z,3.30
2018-06-22T14:10:22.869Z,2.73
2018-06-22T14:12:52.676Z,4.03
2018-06-22T14:15:22.342Z,8.83
2018-06-22T14:17:52.099Z,5.30
2018-06-22T14:20:21.854Z,4.77
2018-06-22T14:22:58.635Z,3.23
2018-06-22T14:25:28.345Z,4.67
2018-06-22T14:27:58.767Z,4.37
2018-06-22T14:30:28.918Z,5.17
2018-06-22T14:32:58.522Z,6.00
2018-06-22T14:35:28.262Z,6.53
2018-06-22T14:37:57.794Z,4.87
2018-06-22T14:40:27.904Z,4.00
2018-06-22T14:42:57.600Z,8.10
2018-06-22T14:45:27.304Z,6.63
2018-06-22T14:47:57.201Z,7.10
2018-06-22T14:50:27.044Z,6.13
2018-06-22T14:52:56.686Z,4.13
2018-06-22T14:55:31.586Z,4.30
2018-06-22T14:58:06.269Z,5.30
2018-06-22T15:00:47.806Z,7.65
2018-06-22T15:03:22.541Z,4.67
2018-06-22T15:05:57.314Z,7.33
2018-06-22T15:08:26.859Z,7.40
2018-06-22T15:10:56.524Z,4.67
2018-06-22T15:13:26.246Z,4.57
2018-06-22T15:15:59.486Z,5.40
2018-06-22T15:18:29.020Z,3.97
2018-06-22T15:20:58.601Z,5.53
2018-06-22T15:23:28.353Z,6.87
2018-06-22T15:25:58.239Z,3.97
2018-06-22T15:28:27.914Z,4.47
2018-06-22T15:30:58.042Z,5.07
2018-06-22T15:33:32.850Z,7.00
2018-06-22T15:36:07.378Z,3.50
2018-06-22T15:38:42.344Z,5.67
2018-06-22T15:41:17.013Z,4.47
2018-06-22T15:43:51.729Z,5.23
2018-06-22T15:46:26.446Z,3.27
2018-06-22T15:49:01.261Z,2.97
2018-06-22T15:51:36.173Z,4.50
2018-06-22T15:54:11.107Z,3.63
2018-06-22T15:56:40.858Z,4.90
2018-06-22T15:59:10.544Z,5.40
2018-06-22T16:01:40.363Z,3.47
2018-06-22T16:04:11.333Z,3.43
2018-06-22T16:06:41.215Z,2.30
2018-06-22T16:09:11.984Z,3.97
2018-06-22T16:11:41.698Z,4.57
2018-06-22T16:15:18.256Z,4.40
2018-06-22T16:17:53.680Z,2.77
2018-06-22T16:20:28.669Z,5.67
2018-06-22T16:23:03.448Z,5.27
2018-06-22T16:25:38.051Z,3.10
2018-06-22T16:28:07.887Z,2.67
2018-06-22T16:30:37.464Z,3.80
2018-06-22T16:33:07.206Z,6.63
2018-06-22T16:35:37.001Z,3.83
2018-06-22T16:38:06.675Z,3.47
2018-06-22T16:40:36.373Z,2.40
2018-06-22T16:43:06.137Z,2.57
2018-06-22T16:45:35.845Z,7.27
2018-06-22T16:48:05.533Z,6.27
2018-06-22T16:50:35.179Z,4.20
2018-06-22T16:53:04.839Z,4.47
2018-06-22T16:55:34.480Z,5.03
2018-06-22T17:00:07.734Z,5.77
2018-06-22T17:02:37.375Z,6.80
2018-06-22T17:05:07.450Z,3.80
2018-06-22T17:07:42.173Z,4.50
2018-06-22T17:10:16.829Z,2.93
2018-06-22T17:12:51.529Z,5.47
2018-06-22T17:15:26.161Z,7.47
2018-06-22T17:18:00.782Z,6.47
2018-06-22T17:20:30.418Z,4.17
2018-06-22T17:23:00.143Z,10.30
2018-06-22T17:25:29.872Z,5.33
2018-06-22T17:27:59.551Z,7.40
2018-06-22T17:30:29.186Z,5.60
2018-06-22T17:32:58.847Z,4.47
2018-06-22T17:35:27.997Z,5.70
2018-06-22T17:37:57.571Z,5.10
2018-06-22T17:40:27.151Z,6.83
2018-06-22T17:42:56.872Z,6.20
2018-06-22T17:45:26.627Z,4.90
2018-06-22T17:47:56.300Z,4.63
2018-06-22T17:50:30.834Z,4.27
2018-06-22T17:53:01.127Z,5.17
2018-06-22T17:55:30.898Z,6.13
2018-06-22T17:58:02.071Z,6.63
2018-06-22T18:00:36.971Z,5.23
2018-06-22T18:03:13.143Z,5.90
2018-06-22T18:05:48.286Z,6.43
2018-06-22T18:08:23.061Z,11.47
2018-06-22T18:10:57.741Z,4.53
2018-06-22T18:13:27.445Z,8.27
2018-06-22T18:15:57.222Z,4.70
2018-06-22T18:18:28.464Z,7.37
2018-06-22T18:20:58.347Z,4.03
2018-06-22T18:23:28.435Z,8.50
2018-06-22T18:25:58.472Z,7.50
2018-06-22T18:28:28.448Z,4.67
2018-06-22T18:30:57.745Z,5.63
2018-06-22T18:33:26.985Z,4.10
2018-06-22T18:35:56.750Z,6.47
2018-06-22T18:38:26.275Z,7.20
2018-06-22T18:40:55.674Z,6.67
2018-06-22T18:43:30.027Z,5.87
2018-06-22T18:45:59.571Z,10.07
2018-06-22T18:48:28.874Z,4.67
2018-06-22T18:50:58.086Z,4.37
2018-06-22T18:53:32.417Z,4.27
2018-06-22T18:56:06.866Z,4.00
2018-06-22T18:58:41.189Z,5.00
2018-06-22T19:01:15.529Z,2.10
2018-06-22T19:03:47.317Z,3.50
2018-06-22T19:06:17.010Z,4.33
2018-06-22T19:08:46.534Z,3.80
2018-06-22T19:11:16.085Z,5.07
2018-06-22T19:13:45.551Z,5.50
2018-06-22T19:16:15.279Z,2.83
2018-06-22T19:18:44.833Z,3.57
2018-06-22T19:21:14.531Z,4.20
2018-06-22T19:23:44.110Z,2.73
2018-06-22T19:26:13.638Z,4.37
2018-06-22T19:28:43.229Z,5.03
2018-06-22T19:31:12.736Z,3.47
2018-06-22T19:33:42.352Z,4.17
2018-06-22T19:36:11.925Z,3.60
2018-06-22T19:38:41.421Z,6.03
2018-06-22T19:41:10.954Z,3.10
2018-06-22T19:43:45.390Z,2.70
2018-06-22T19:46:19.716Z,3.67
2018-06-22T19:48:54.229Z,4.40
2018-06-22T19:51:28.628Z,3.47
2018-06-22T19:54:01.948Z,4.77
2018-06-22T19:56:31.379Z,3.70
2018-06-22T19:59:01.015Z,4.40
2018-06-22T20:01:30.705Z,3.30
2018-06-22T20:04:00.238Z,2.37
2018-06-22T20:06:29.750Z,3.73
2018-06-22T20:08:59.541Z,3.93
2018-06-22T20:11:29.036Z,3.67
2018-06-22T20:13:58.538Z,2.47
2018-06-22T20:16:28.088Z,3.33
2018-06-22T20:18:57.593Z,3.90
2018-06-22T20:21:27.198Z,3.57
2018-06-22T20:23:56.698Z,2.80
2018-06-22T20:26:26.153Z,4.67
2018-06-22T20:28:55.937Z,3.33
2018-06-22T20:31:30.351Z,3.57
2018-06-22T20:34:04.702Z,3.67
2018-06-22T20:36:39.247Z,2.67
2018-06-22T20:39:13.649Z,2.77
2018-06-22T20:41:48.184Z,2.50
2018-06-22T20:44:22.558Z,6.07
2018-06-22T20:46:57.057Z,4.53
2018-06-22T20:49:31.701Z,3.57
2018-06-22T20:52:01.319Z,5.67
2018-06-22T20:54:30.759Z,3.93
2018-06-22T20:57:00.298Z,3.40
2018-06-22T20:59:29.920Z,5.10
2018-06-22T21:01:59.390Z,2.80
2018-06-22T21:04:28.482Z,4.03
2018-06-22T21:06:57.709Z,4.03
2018-06-22T21:09:27.011Z,4.37
2018-06-22T21:11:56.136Z,4.07
2018-06-22T21:14:25.298Z,3.37
2018-06-22T21:16:54.378Z,4.77
2018-06-22T21:19:23.393Z,4.67
2018-06-22T21:21:57.490Z,2.43
2018-06-22T21:24:26.519Z,2.80
2018-06-22T21:27:00.005Z,4.97
2018-06-22T21:29:34.217Z,2.23
2018-06-22T21:32:08.426Z,2.67
2018-06-22T21:34:41.645Z,3.43
2018-06-22T21:37:15.805Z,3.37
2018-06-22T21:39:44.804Z,5.03
2018-06-22T21:42:13.898Z,5.33
2018-06-22T21:44:42.957Z,5.27
2018-06-22T21:47:11.961Z,6.53
2018-06-22T21:49:41.186Z,5.53
2018-06-22T21:52:10.552Z,4.70
2018-06-22T21:54:39.563Z,5.87
2018-06-22T21:57:08.608Z,3.77
2018-06-22T21:59:37.591Z,5.37
2018-06-22T22:02:06.814Z,4.27
2018-06-22T22:04:35.866Z,5.27
2018-06-22T22:07:04.861Z,4.53
2018-06-22T22:09:39.169Z,4.20
2018-06-22T22:12:08.231Z,5.50
2018-06-22T22:14:37.587Z,3.10
2018-06-22T22:17:06.811Z,2.97
2018-06-22T22:19:35.907Z,3.33
2018-06-22T22:22:04.989Z,3.40
2018-06-22T22:24:34.072Z,5.63
2018-06-22T22:27:03.205Z,4.07
2018-06-22T22:29:32.258Z,3.90
2018-06-22T22:32:01.176Z,5.30
2018-06-22T22:34:30.289Z,7.50
2018-06-22T22:36:59.325Z,3.83
2018-06-22T22:39:28.270Z,4.17
2018-06-22T22:41:57.213Z,7.80
2018-06-22T22:44:26.223Z,4.37
2018-06-22T22:46:55.192Z,3.40
2018-06-22T22:49:24.319Z,3.63
2018-06-22T22:51:53.307Z,5.13
2018-06-22T22:54:22.321Z,5.07
2018-06-22T22:56:51.302Z,4.07
2018-06-22T22:59:20.403Z,3.17
2018-06-22T23:01:49.376Z,3.63
2018-06-22T23:04:18.362Z,3.37
2018-06-22T23:06:47.299Z,5.17
2018-06-22T23:09:16.245Z,3.20
2018-06-22T23:11:45.253Z,5.37
2018-06-22T23:14:14.251Z,2.83
2018-06-22T23:16:43.259Z,2.87
2018-06-22T23:19:12.359Z,2.90
2018-06-22T23:21:41.449Z,4.60
2018-06-22T23:24:10.532Z,4.40
2018-06-22T23:26:39.592Z,5.63
2018-06-22T23:29:08.568Z,3.37
2018-06-22T23:31:37.584Z,4.93
2018-06-22T23:34:06.628Z,3.33
2018-06-22T23:36:35.770Z,4.57
2018-06-22T23:39:06.695Z,3.90
2018-06-22T23:41:35.702Z,3.00
2018-06-22T23:44:04.726Z,7.60
2018-06-22T23:46:33.909Z,5.43
2018-06-22T23:49:02.986Z,3.40
2018-06-22T23:51:31.954Z,3.57
2018-06-22T23:54:00.944Z,3.63
2018-06-22T23:56:29.889Z,4.10
2018-06-22T23:58:59.074Z,3.63
